Time;durP1;ratioP1;P1;durP2;ratioP2;P2;SDS_P1;SDS_P2;PMS_P1;PMS_P2;Temp;Humidity;BMP_temperature;BMP_pressure;BME280_temperature;BME280_humidity;BME280_pressure;Samples;Min_cycle;Max_cycle;Signal;HPM_P1;HPM_P2
2022/11/05 00:10:24;;;;;;;5.57;3.60;;;12.40;99.90;;;;;;5105633;27;20180;-67
2022/11/05 00:18:24;;;;;;;7.57;4.37;;;12.40;99.90;;;;;;5110213;28;20607;-65
2022/11/05 00:20:51;;;;;;;4.33;3.13;;;12.40;99.90;;;;;;5110772;28;20209;-65
2022/11/05 00:26:06;;;;;;;5.80;3.60;;;12.30;99.90;;;;;;5090412;28;20185;-66
2022/11/05 00:28:35;;;;;;;5.27;3.80;;;12.30;99.90;;;;;;5105840;28;20279;-65
2022/11/05 00:31:03;;;;;;;10.40;4.27;;;12.30;99.90;;;;;;5089510;28;20265;-66
2022/11/05 00:33:31;;;;;;;4.00;3.50;;;12.30;99.90;;;;;;5109602;28;20644;-65
2022/11/05 00:35:58;;;;;;;5.83;4.23;;;12.30;99.90;;;;;;5109076;28;20601;-65
2022/11/05 00:38:26;;;;;;;4.80;4.30;;;12.30;99.90;;;;;;5110392;28;20371;-65
2022/11/05 00:40:53;;;;;;;8.03;4.37;;;12.30;99.90;;;;;;5109306;28;20207;-66
2022/11/05 00:46:06;;;;;;;4.33;3.73;;;12.20;99.90;;;;;;5109607;28;20191;-65
2022/11/05 00:51:18;;;;;;;7.60;5.03;;;12.20;99.90;;;;;;5106526;27;20192;-66
2022/11/05 00:53:46;;;;;;;9.30;5.10;;;12.10;99.90;;;;;;5108045;28;20220;-66
2022/11/05 00:56:13;;;;;;;8.30;5.13;;;12.10;99.90;;;;;;5110352;27;20278;-66
2022/11/05 00:58:40;;;;;;;5.20;4.40;;;12.10;99.90;;;;;;5090473;28;20243;-66
2022/11/05 01:01:10;;;;;;;4.20;3.53;;;12.10;99.90;;;;;;5107031;27;20261;-66
2022/11/05 01:03:39;;;;;;;3.67;3.27;;;12.10;99.90;;;;;;5090167;28;20287;-65
2022/11/05 01:06:10;;;;;;;2.60;2.40;;;12.10;99.90;;;;;;5108790;28;20202;-65
2022/11/05 01:08:38;;;;;;;4.83;3.30;;;12.10;99.90;;;;;;5106752;27;20208;-65
2022/11/05 01:11:10;;;;;;;4.00;3.60;;;12.20;99.90;;;;;;5107586;27;20272;-65
2022/11/05 01:13:37;;;;;;;4.90;3.77;;;12.20;99.90;;;;;;5108586;28;20218;-66
2022/11/05 01:16:06;;;;;;;5.13;3.70;;;12.20;99.90;;;;;;5110602;27;20188;-65
2022/11/05 01:18:36;;;;;;;4.73;3.70;;;12.20;99.90;;;;;;5109231;28;20192;-65
2022/11/05 01:21:10;;;;;;;4.83;4.03;;;12.20;99.90;;;;;;5108223;27;20310;-65
2022/11/05 01:23:38;;;;;;;4.03;3.53;;;12.20;99.90;;;;;;5084984;28;20203;-66
2022/11/05 01:26:05;;;;;;;3.77;3.30;;;12.20;99.90;;;;;;5108079;28;20196;-65
2022/11/05 01:28:32;;;;;;;3.80;3.13;;;12.20;99.90;;;;;;5108266;28;20188;-66
2022/11/05 01:31:00;;;;;;;3.23;2.93;;;12.20;99.90;;;;;;5109569;27;20201;-66
2022/11/05 01:33:27;;;;;;;3.00;2.60;;;12.20;99.90;;;;;;5110147;28;20192;-66
2022/11/05 01:35:55;;;;;;;6.77;3.40;;;12.20;99.90;;;;;;5091297;28;20210;-66
2022/11/05 01:38:23;;;;;;;4.23;3.83;;;12.30;99.90;;;;;;5106818;27;20216;-66
2022/11/05 01:40:50;;;;;;;6.40;4.30;;;12.20;99.90;;;;;;5108985;27;20575;-66
2022/11/05 01:43:19;;;;;;;4.70;3.40;;;12.20;99.90;;;;;;5108606;28;20275;-66
2022/11/05 01:45:50;;;;;;;4.67;4.20;;;12.20;99.90;;;;;;5109547;27;20203;-66
2022/11/05 01:48:20;;;;;;;4.20;3.40;;;12.20;99.90;;;;;;5108923;27;20266;-66
2022/11/05 01:50:53;;;;;;;5.17;4.23;;;12.20;99.90;;;;;;5107746;27;20203;-65
2022/11/05 01:53:29;;;;;;;4.27;3.87;;;12.20;99.90;;;;;;5106746;28;20258;-66
2022/11/05 01:56:00;;;;;;;3.93;3.20;;;12.20;99.90;;;;;;5106790;28;20185;-66
2022/11/05 01:58:32;;;;;;;3.33;3.10;;;12.20;99.90;;;;;;5108933;27;20292;-66
2022/11/05 02:01:00;;;;;;;4.60;3.87;;;12.20;99.90;;;;;;5107343;28;20715;-66
2022/11/05 02:03:28;;;;;;;2.93;2.70;;;12.30;99.90;;;;;;5108406;28;20243;-65
2022/11/05 02:05:57;;;;;;;2.80;2.53;;;12.30;99.90;;;;;;5109361;28;20202;-66
2022/11/05 02:08:43;;;;;;;6.10;3.90;;;12.30;99.90;;;;;;5090488;28;20207;-66
2022/11/05 02:11:12;;;;;;;3.97;3.10;;;12.30;99.90;;;;;;5105278;27;20190;-66
2022/11/05 02:13:40;;;;;;;4.27;3.50;;;12.30;99.90;;;;;;5107446;27;20202;-66
2022/11/05 02:16:16;;;;;;;3.53;3.23;;;12.30;99.90;;;;;;5107242;27;20189;-65
2022/11/05 02:18:54;;;;;;;4.60;3.37;;;12.30;99.90;;;;;;5108603;27;20274;-65
2022/11/05 02:21:50;;;;;;;2.80;2.60;;;12.30;99.90;;;;;;5110071;27;20304;-65
2022/11/05 02:24:39;;;;;;;2.30;2.20;;;12.30;99.90;;;;;;5106859;27;20203;-66
2022/11/05 02:27:25;;;;;;;4.30;3.20;;;12.30;99.90;;;;;;5110246;27;20674;-66
2022/11/05 02:30:10;;;;;;;5.27;4.20;;;12.30;99.90;;;;;;5106800;27;20302;-66
2022/11/05 02:33:15;;;;;;;3.50;3.20;;;12.30;99.90;;;;;;5110603;27;20207;-66
2022/11/05 02:36:06;;;;;;;2.93;2.73;;;12.30;99.90;;;;;;5098461;27;20208;-66
2022/11/05 02:38:43;;;;;;;5.77;3.40;;;12.30;99.90;;;;;;5107183;28;20193;-66
2022/11/05 02:41:18;;;;;;;4.00;3.60;;;12.30;99.90;;;;;;5089257;28;20226;-66
2022/11/05 02:43:59;;;;;;;2.87;2.50;;;12.30;99.90;;;;;;5110514;27;20271;-66
2022/11/05 02:46:35;;;;;;;3.40;3.10;;;12.30;99.90;;;;;;5110320;27;20236;-66
2022/11/05 02:49:13;;;;;;;4.80;3.93;;;12.30;99.90;;;;;;5107747;27;20192;-66
2022/11/05 02:51:55;;;;;;;5.10;3.60;;;12.30;99.90;;;;;;5106527;28;20199;-67
2022/11/05 02:54:27;;;;;;;6.77;3.93;;;12.30;99.90;;;;;;5103165;28;20257;-67
2022/11/05 02:56:55;;;;;;;5.90;4.33;;;12.30;99.90;;;;;;5106447;28;20196;-67
2022/11/05 02:59:22;;;;;;;4.83;3.33;;;12.20;99.90;;;;;;5107637;28;20235;-66
2022/11/05 03:01:51;;;;;;;4.20;3.47;;;12.30;99.90;;;;;;5107761;28;20402;-65
2022/11/05 03:04:21;;;;;;;3.03;2.63;;;12.30;99.90;;;;;;5107755;28;20287;-67
2022/11/05 03:07:11;;;;;;;5.03;3.77;;;12.40;99.90;;;;;;5104664;28;20211;-67
2022/11/05 03:10:02;;;;;;;3.97;3.57;;;12.30;99.90;;;;;;5107759;28;20196;-65
2022/11/05 03:12:39;;;;;;;4.17;3.70;;;12.30;99.90;;;;;;5107060;28;20279;-66
2022/11/05 03:15:16;;;;;;;3.97;3.20;;;12.30;99.90;;;;;;5105005;28;20191;-65
2022/11/05 03:17:51;;;;;;;4.30;3.30;;;12.30;99.90;;;;;;5108841;28;20261;-66
2022/11/05 03:20:23;;;;;;;4.13;3.73;;;12.30;99.90;;;;;;5109242;28;20292;-65
2022/11/05 03:22:59;;;;;;;5.90;3.90;;;12.30;99.90;;;;;;5101260;28;20527;-65
2022/11/05 03:25:29;;;;;;;6.20;4.50;;;12.20;99.90;;;;;;5107028;28;20733;-65
2022/11/05 03:28:00;;;;;;;5.40;4.70;;;12.20;99.90;;;;;;5109323;28;20196;-65
2022/11/05 03:30:27;;;;;;;4.37;3.97;;;12.20;99.90;;;;;;5107422;28;20524;-65
2022/11/05 03:32:59;;;;;;;5.67;4.67;;;12.20;99.90;;;;;;5108776;28;20188;-65
2022/11/05 03:35:31;;;;;;;5.13;4.17;;;12.20;99.90;;;;;;5108881;28;20191;-65
2022/11/05 03:38:02;;;;;;;6.77;5.03;;;12.20;99.90;;;;;;5108460;28;20187;-65
2022/11/05 03:40:33;;;;;;;5.40;4.43;;;12.20;99.90;;;;;;5106332;28;20276;-65
2022/11/05 03:43:03;;;;;;;4.47;3.67;;;12.20;99.90;;;;;;5105993;28;20191;-65
2022/11/05 03:45:37;;;;;;;4.20;3.80;;;12.20;99.90;;;;;;5106397;28;20610;-65
2022/11/05 03:48:07;;;;;;;5.03;3.93;;;12.20;99.90;;;;;;5110663;28;20310;-65
2022/11/05 03:50:42;;;;;;;5.47;4.17;;;12.20;99.90;;;;;;5090246;28;20195;-65
2022/11/05 03:53:15;;;;;;;4.20;3.67;;;12.20;99.90;;;;;;5102660;28;20272;-65
2022/11/05 03:55:50;;;;;;;4.53;3.90;;;12.20;99.90;;;;;;5104874;28;20208;-65
2022/11/05 03:58:21;;;;;;;6.73;5.30;;;12.20;99.90;;;;;;5105685;28;20240;-65
2022/11/05 04:00:49;;;;;;;8.43;5.40;;;12.20;99.90;;;;;;5107148;28;20662;-66
2022/11/05 04:03:16;;;;;;;6.70;4.93;;;12.20;99.90;;;;;;5107117;28;20195;-64
2022/11/05 04:13:22;;;;;;;6.90;4.87;;;12.20;99.90;;;;;;5107251;28;20195;-66
2022/11/05 04:14:02;;;;;;;3.70;3.07;;;12.10;99.90;;;;;;5114609;27;20222;-66
2022/11/05 04:24:06;;;;;;;5.50;3.80;;;12.10;99.90;;;;;;5093591;28;20193;-65
2022/11/05 04:24:47;;;;;;;3.87;2.90;;;12.10;99.90;;;;;;5110965;27;20188;-65
2022/11/05 04:27:14;;;;;;;3.87;3.50;;;12.20;99.90;;;;;;5111473;27;20180;-66
2022/11/05 04:32:23;;;;;;;3.63;3.33;;;12.20;99.90;;;;;;5098787;27;20741;-65
2022/11/05 04:34:50;;;;;;;2.80;2.53;;;12.20;99.90;;;;;;5112773;27;20700;-66
2022/11/05 04:37:18;;;;;;;3.47;3.17;;;12.20;99.90;;;;;;5107788;28;20199;-66
2022/11/05 04:39:45;;;;;;;3.40;2.50;;;12.20;99.90;;;;;;5109683;27;20580;-66
2022/11/05 04:42:13;;;;;;;2.70;2.50;;;12.20;99.90;;;;;;5108945;28;20211;-66
2022/11/05 04:44:40;;;;;;;4.03;3.40;;;12.20;99.90;;;;;;5111211;27;20607;-65
2022/11/05 04:47:07;;;;;;;4.00;3.10;;;12.20;99.90;;;;;;5111523;27;20196;-66
2022/11/05 04:49:34;;;;;;;4.50;3.47;;;12.20;99.90;;;;;;5111886;27;20199;-66
2022/11/05 04:52:01;;;;;;;4.63;3.43;;;12.20;99.90;;;;;;5108721;28;20195;-66
2022/11/05 04:54:30;;;;;;;4.57;3.43;;;12.20;99.90;;;;;;5091205;28;20207;-67
2022/11/05 04:56:57;;;;;;;4.67;4.10;;;12.20;99.90;;;;;;5109964;28;20188;-67
2022/11/05 04:59:24;;;;;;;5.00;4.30;;;12.20;99.90;;;;;;5109485;28;20288;-67
2022/11/05 05:01:52;;;;;;;4.53;3.70;;;12.20;99.90;;;;;;5108608;27;20510;-67
2022/11/05 05:04:19;;;;;;;5.70;4.67;;;12.10;99.90;;;;;;5107729;28;20540;-66
2022/11/05 05:06:46;;;;;;;3.67;3.37;;;12.10;99.90;;;;;;5108484;28;20336;-66
2022/11/05 05:09:13;;;;;;;3.37;3.00;;;12.10;99.90;;;;;;5107483;27;20336;-66
2022/11/05 05:11:42;;;;;;;3.43;3.13;;;12.10;99.90;;;;;;5111167;27;20187;-66
2022/11/05 05:14:09;;;;;;;5.53;4.13;;;12.10;99.90;;;;;;5109204;27;20199;-66
2022/11/05 05:16:36;;;;;;;4.03;3.67;;;12.10;99.90;;;;;;5111766;27;20188;-66
2022/11/05 05:19:03;;;;;;;4.50;3.80;;;12.10;99.90;;;;;;5107750;27;20219;-66
2022/11/05 05:21:39;;;;;;;6.43;4.93;;;12.10;99.90;;;;;;5108146;28;20207;-67
2022/11/05 05:24:08;;;;;;;4.37;3.97;;;12.10;99.90;;;;;;5093246;28;20187;-66
2022/11/05 05:26:36;;;;;;;5.70;4.33;;;12.10;99.90;;;;;;5112277;27;20184;-66
2022/11/05 05:29:05;;;;;;;5.97;3.90;;;12.10;99.90;;;;;;5108892;27;20257;-65
2022/11/05 05:31:33;;;;;;;8.93;5.73;;;12.10;99.90;;;;;;5110758;27;20210;-65
2022/11/05 05:34:00;;;;;;;5.23;4.53;;;12.10;99.90;;;;;;5110639;27;20192;-66
2022/11/05 05:36:28;;;;;;;6.97;5.10;;;12.10;99.90;;;;;;5110694;27;20195;-64
2022/11/05 05:38:55;;;;;;;4.50;4.10;;;12.10;99.90;;;;;;5109062;27;20314;-65
2022/11/05 05:41:22;;;;;;;5.20;4.50;;;12.00;99.90;;;;;;5108956;27;20272;-66
2022/11/05 05:43:50;;;;;;;7.13;5.03;;;12.00;99.90;;;;;;5108710;27;20550;-65
2022/11/05 05:46:19;;;;;;;6.10;4.53;;;12.00;99.90;;;;;;5111141;27;20200;-65
2022/11/05 05:48:49;;;;;;;5.60;4.97;;;12.00;99.90;;;;;;5109069;27;20201;-66
2022/11/05 05:51:17;;;;;;;7.50;4.90;;;12.00;99.90;;;;;;5088863;28;20282;-64
2022/11/05 05:53:45;;;;;;;5.20;4.70;;;12.00;99.90;;;;;;5105403;27;20195;-65
2022/11/05 05:56:13;;;;;;;7.27;5.23;;;12.00;99.90;;;;;;5109088;27;20251;-65
2022/11/05 05:58:41;;;;;;;6.73;5.13;;;12.00;99.90;;;;;;5105059;27;20215;-65
2022/11/05 06:01:10;;;;;;;5.13;4.50;;;12.00;99.90;;;;;;5110846;27;20196;-64
2022/11/05 06:03:39;;;;;;;7.47;4.80;;;12.00;99.90;;;;;;5108784;27;20325;-65
2022/11/05 06:06:09;;;;;;;6.43;4.40;;;11.80;99.90;;;;;;5108650;27;20206;-64
2022/11/05 06:08:36;;;;;;;6.40;5.00;;;12.00;99.90;;;;;;5111305;27;20376;-63
2022/11/05 06:11:05;;;;;;;5.10;4.57;;;12.00;99.90;;;;;;5106731;27;20279;-64
2022/11/05 06:13:33;;;;;;;6.30;5.03;;;12.00;99.90;;;;;;5108048;27;20223;-65
2022/11/05 06:16:02;;;;;;;6.13;4.10;;;12.00;99.90;;;;;;5109601;28;20224;-66
2022/11/05 06:18:29;;;;;;;6.07;4.70;;;11.90;99.90;;;;;;5109478;27;20203;-66
2022/11/05 06:21:01;;;;;;;4.63;3.90;;;11.90;99.90;;;;;;5086985;28;20228;-66
2022/11/05 06:23:30;;;;;;;6.00;5.23;;;11.90;99.90;;;;;;5109440;27;20205;-66
2022/11/05 06:26:00;;;;;;;6.40;4.43;;;11.90;99.90;;;;;;5108176;28;20294;-65
2022/11/05 06:28:28;;;;;;;6.47;5.43;;;11.90;99.90;;;;;;5107142;27;20194;-65
2022/11/05 06:30:55;;;;;;;5.67;4.53;;;11.90;99.90;;;;;;5125151;27;20192;-65
2022/11/05 06:33:23;;;;;;;5.57;4.90;;;11.90;99.90;;;;;;5107018;28;20192;-65
2022/11/05 06:35:50;;;;;;;10.60;6.30;;;11.90;99.90;;;;;;5107049;28;20282;-65
2022/11/05 06:38:19;;;;;;;7.60;5.80;;;12.00;99.90;;;;;;5108853;27;20194;-65
2022/11/05 06:40:46;;;;;;;8.47;5.93;;;11.90;99.90;;;;;;5105257;28;20190;-66
2022/11/05 06:43:13;;;;;;;8.60;5.80;;;11.90;99.90;;;;;;5108178;28;20206;-65
2022/11/05 06:45:40;;;;;;;10.10;6.50;;;11.90;99.90;;;;;;5090284;28;20191;-65
2022/11/05 06:48:09;;;;;;;9.83;6.50;;;11.80;99.90;;;;;;5087185;28;20188;-66
2022/11/05 06:50:36;;;;;;;7.17;5.93;;;11.80;99.90;;;;;;5091517;27;20222;-65
2022/11/05 06:53:04;;;;;;;8.37;6.00;;;11.80;99.90;;;;;;5106295;28;20198;-65
2022/11/05 06:55:33;;;;;;;8.27;5.70;;;11.80;99.90;;;;;;5106199;28;20213;-65
2022/11/05 06:58:00;;;;;;;8.43;6.00;;;11.80;99.90;;;;;;5089137;28;20687;-65
2022/11/05 07:00:27;;;;;;;9.60;6.13;;;11.80;99.90;;;;;;5106256;28;20197;-65
2022/11/05 07:02:55;;;;;;;10.07;5.93;;;11.80;99.90;;;;;;5108427;28;20208;-65
2022/11/05 07:05:23;;;;;;;9.67;6.60;;;11.80;99.90;;;;;;5109335;28;20210;-65
2022/11/05 07:07:50;;;;;;;18.43;7.30;;;11.80;99.90;;;;;;5107224;28;20190;-65
2022/11/05 07:10:19;;;;;;;11.67;7.30;;;11.80;99.90;;;;;;5109842;28;20280;-65
2022/11/05 07:12:47;;;;;;;15.23;8.47;;;11.80;99.90;;;;;;5105166;28;20197;-65
2022/11/05 07:15:14;;;;;;;13.53;8.73;;;11.70;99.90;;;;;;5108803;28;20196;-65
2022/11/05 07:17:41;;;;;;;12.73;8.60;;;11.70;99.90;;;;;;5108670;28;20202;-65
2022/11/05 07:20:10;;;;;;;8.83;7.13;;;11.70;99.90;;;;;;5110122;28;20211;-67
2022/11/05 07:22:37;;;;;;;10.10;6.13;;;11.70;99.90;;;;;;5087867;28;20203;-66
2022/11/05 07:25:06;;;;;;;5.50;4.80;;;11.70;99.90;;;;;;5106830;28;20188;-65
2022/11/05 07:27:38;;;;;;;5.90;4.97;;;11.80;99.90;;;;;;5105969;28;20199;-65
2022/11/05 07:30:08;;;;;;;5.83;4.43;;;11.80;99.90;;;;;;5107787;28;20191;-65
2022/11/05 07:32:39;;;;;;;3.80;3.50;;;11.90;99.90;;;;;;5106433;28;20192;-66
2022/11/05 07:35:08;;;;;;;4.87;4.20;;;11.90;99.90;;;;;;5108235;28;20187;-66
2022/11/05 07:37:42;;;;;;;5.73;4.30;;;11.90;99.90;;;;;;5109023;28;20190;-66
2022/11/05 07:40:11;;;;;;;6.90;4.73;;;11.90;99.90;;;;;;5109640;28;20191;-66
2022/11/05 07:42:38;;;;;;;5.63;4.67;;;12.00;99.90;;;;;;5093897;27;20210;-66
2022/11/05 07:45:08;;;;;;;5.40;4.10;;;12.00;99.90;;;;;;5113240;27;20198;-66
2022/11/05 07:47:37;;;;;;;7.70;6.23;;;11.90;99.90;;;;;;5113292;27;20253;-66
2022/11/05 07:50:05;;;;;;;7.07;5.43;;;12.00;99.90;;;;;;5094741;28;20222;-66
2022/11/05 07:52:32;;;;;;;4.97;4.47;;;12.00;99.90;;;;;;5112589;27;20260;-66
2022/11/05 07:54:59;;;;;;;7.80;6.00;;;12.00;99.90;;;;;;5110591;27;20192;-65
2022/11/05 07:57:26;;;;;;;9.13;6.30;;;12.00;99.90;;;;;;5108842;27;20811;-65
2022/11/05 07:59:53;;;;;;;9.07;6.07;;;12.00;99.90;;;;;;5112851;27;20194;-66
2022/11/05 08:02:22;;;;;;;7.87;5.50;;;12.00;99.90;;;;;;5113342;27;20211;-65
2022/11/05 08:04:49;;;;;;;9.57;6.53;;;12.00;99.90;;;;;;5113322;27;20199;-65
2022/11/05 08:07:16;;;;;;;12.93;7.53;;;12.00;99.90;;;;;;5092630;28;20202;-66
2022/11/05 08:09:43;;;;;;;21.63;7.37;;;12.00;99.90;;;;;;5112019;27;20202;-65
2022/11/05 08:12:11;;;;;;;13.17;8.03;;;11.90;99.90;;;;;;5114598;27;20274;-66
2022/11/05 08:14:38;;;;;;;7.93;5.80;;;11.90;99.90;;;;;;5112199;27;20207;-65
2022/11/05 08:17:05;;;;;;;5.50;4.40;;;11.90;99.90;;;;;;5110723;27;20683;-65
2022/11/05 08:19:34;;;;;;;5.37;4.30;;;12.00;99.90;;;;;;5112274;28;20191;-67
2022/11/05 08:22:02;;;;;;;4.63;3.90;;;12.00;99.90;;;;;;5112454;27;20567;-64
2022/11/05 08:24:30;;;;;;;4.73;4.23;;;12.10;99.90;;;;;;5093273;27;20193;-66
2022/11/05 08:26:57;;;;;;;6.50;5.20;;;12.10;99.90;;;;;;5110449;27;20202;-66
2022/11/05 08:29:24;;;;;;;5.47;4.57;;;12.10;99.90;;;;;;5092659;28;20551;-67
2022/11/05 08:31:51;;;;;;;4.40;4.00;;;12.20;99.90;;;;;;5111510;28;20192;-66
2022/11/05 08:34:18;;;;;;;5.77;4.20;;;12.20;99.90;;;;;;5112019;28;20297;-65
2022/11/05 08:36:47;;;;;;;6.63;5.93;;;12.30;99.90;;;;;;5109030;28;20470;-65
2022/11/05 08:39:17;;;;;;;44.23;24.77;;;12.20;99.90;;;;;;5108500;27;20200;-67
2022/11/05 08:41:44;;;;;;;22.87;14.97;;;12.20;99.90;;;;;;5111189;27;20537;-66
2022/11/05 08:44:12;;;;;;;15.33;10.70;;;12.20;99.90;;;;;;5106095;27;20277;-65
2022/11/05 08:46:39;;;;;;;13.90;8.87;;;12.20;99.90;;;;;;5110831;28;20199;-65
2022/11/05 08:49:06;;;;;;;11.13;7.60;;;12.20;99.90;;;;;;5114355;27;20201;-65
2022/11/05 08:51:33;;;;;;;7.43;5.77;;;12.20;99.90;;;;;;5107187;28;20195;-65
2022/11/05 08:54:02;;;;;;;10.20;7.23;;;12.30;99.90;;;;;;5091530;28;20285;-65
2022/11/05 08:56:29;;;;;;;11.90;7.50;;;12.20;99.90;;;;;;5107936;27;20192;-65
2022/11/05 08:58:56;;;;;;;7.53;6.27;;;12.20;99.90;;;;;;5108657;27;20586;-65
2022/11/05 09:01:23;;;;;;;7.67;6.40;;;12.20;99.90;;;;;;5110443;27;20310;-65
2022/11/05 09:03:51;;;;;;;6.30;5.03;;;12.20;99.90;;;;;;5109077;27;20214;-66
2022/11/05 09:06:19;;;;;;;8.87;6.20;;;12.30;99.90;;;;;;5108256;28;20199;-65
2022/11/05 09:08:46;;;;;;;9.70;7.43;;;12.30;99.90;;;;;;5108098;27;20207;-65
2022/11/05 09:11:15;;;;;;;13.80;8.97;;;12.30;99.90;;;;;;5109854;28;20214;-66
2022/11/05 09:13:42;;;;;;;13.17;9.30;;;12.30;99.90;;;;;;5091984;28;20186;-65
2022/11/05 09:16:18;;;;;;;26.13;10.80;;;12.30;99.90;;;;;;5112121;27;20227;-65
2022/11/05 09:18:45;;;;;;;17.87;9.63;;;12.20;99.90;;;;;;5107274;28;20637;-67
2022/11/05 09:21:12;;;;;;;14.10;9.23;;;12.20;99.90;;;;;;5109473;27;20596;-66
2022/11/05 09:23:40;;;;;;;13.80;8.40;;;12.20;99.90;;;;;;5107669;28;20215;-66
2022/11/05 09:26:07;;;;;;;12.27;8.47;;;12.20;99.90;;;;;;5089694;28;20238;-65
2022/11/05 09:28:36;;;;;;;9.60;6.60;;;12.20;99.90;;;;;;5109446;27;20666;-65
2022/11/05 09:31:07;;;;;;;8.57;5.90;;;12.30;99.90;;;;;;5107430;28;20200;-65
2022/11/05 09:33:36;;;;;;;8.93;6.90;;;11.80;99.90;;;;;;5110671;28;20273;-65
2022/11/05 09:36:04;;;;;;;8.53;6.73;;;12.40;99.90;;;;;;5109313;28;20192;-65
2022/11/05 09:38:33;;;;;;;12.07;8.73;;;12.40;99.90;;;;;;5109138;28;20249;-66
2022/11/05 09:41:03;;;;;;;10.57;7.60;;;12.50;99.90;;;;;;5089564;28;20566;-66
2022/11/05 09:43:37;;;;;;;10.73;8.47;;;12.50;99.90;;;;;;5100558;27;20568;-66
2022/11/05 09:46:11;;;;;;;8.23;6.13;;;12.50;99.90;;;;;;5108173;27;20678;-66
2022/11/05 09:48:39;;;;;;;6.57;5.23;;;12.50;99.90;;;;;;5110355;27;20726;-66
2022/11/05 09:51:06;;;;;;;9.33;6.80;;;12.50;99.90;;;;;;5111422;27;20204;-65
2022/11/05 09:53:38;;;;;;;7.70;5.83;;;12.60;99.90;;;;;;5111445;27;20206;-67
2022/11/05 09:56:16;;;;;;;5.70;5.00;;;12.50;99.90;;;;;;5111314;27;20196;-66
2022/11/05 09:58:48;;;;;;;5.77;4.63;;;12.60;99.90;;;;;;5106483;28;20254;-66
2022/11/05 10:01:21;;;;;;;6.33;5.13;;;12.60;99.90;;;;;;5108566;27;20212;-66
2022/11/05 10:03:50;;;;;;;5.27;4.37;;;12.60;99.90;;;;;;5109910;28;20207;-65
2022/11/05 10:06:20;;;;;;;4.40;4.00;;;12.70;99.90;;;;;;5108883;27;20196;-65
2022/11/05 10:08:51;;;;;;;8.57;6.13;;;12.70;99.90;;;;;;5109251;27;20192;-66
2022/11/05 10:11:23;;;;;;;7.00;4.87;;;12.70;99.90;;;;;;5111275;27;20203;-65
2022/11/05 10:13:56;;;;;;;5.33;4.37;;;12.70;99.90;;;;;;5106937;28;20259;-67
2022/11/05 10:16:27;;;;;;;5.37;4.47;;;12.80;99.90;;;;;;5107848;28;20192;-66
2022/11/05 10:18:59;;;;;;;8.30;5.90;;;12.80;99.90;;;;;;5109676;28;20196;-65
2022/11/05 10:21:26;;;;;;;5.43;4.47;;;12.80;99.90;;;;;;5107482;27;20196;-65
2022/11/05 10:23:54;;;;;;;7.33;5.17;;;12.80;99.90;;;;;;5107096;28;20286;-65
2022/11/05 10:26:25;;;;;;;4.30;3.90;;;12.90;99.90;;;;;;5107805;27;20601;-65
2022/11/05 10:28:54;;;;;;;7.50;5.10;;;12.90;99.90;;;;;;5106495;27;20184;-66
2022/11/05 10:31:23;;;;;;;5.07;4.10;;;12.90;99.90;;;;;;5111128;27;20201;-66
2022/11/05 10:33:58;;;;;;;10.87;4.90;;;12.90;99.90;;;;;;5111261;27;20196;-65
2022/11/05 10:36:27;;;;;;;8.90;5.10;;;13.00;99.90;;;;;;5109360;27;20193;-65
2022/11/05 10:39:00;;;;;;;8.37;5.77;;;13.00;99.90;;;;;;5110841;27;20205;-66
2022/11/05 10:41:51;;;;;;;6.00;4.77;;;13.00;99.90;;;;;;5109797;27;20200;-66
2022/11/05 10:44:30;;;;;;;4.40;3.67;;;13.00;99.90;;;;;;5108944;27;20630;-66
2022/11/05 10:47:12;;;;;;;3.87;2.90;;;13.00;99.90;;;;;;5112829;27;20240;-65
2022/11/05 10:49:52;;;;;;;3.07;2.77;;;13.00;99.90;;;;;;5112400;27;20279;-65
2022/11/05 10:52:22;;;;;;;5.20;2.50;;;13.10;99.90;;;;;;5109780;27;20656;-66
2022/11/05 10:54:53;;;;;;;3.07;2.33;;;13.10;99.90;;;;;;5111787;27;20280;-65
2022/11/05 10:57:32;;;;;;;2.53;2.33;;;13.10;99.90;;;;;;5108051;28;20207;-66
2022/11/05 11:00:27;;;;;;;2.27;2.07;;;13.10;99.90;;;;;;5103052;28;20192;-66
2022/11/05 11:02:56;;;;;;;2.87;2.10;;;13.10;99.90;;;;;;5107243;28;20288;-67
2022/11/05 11:05:27;;;;;;;2.03;1.80;;;13.10;99.90;;;;;;5100291;28;20181;-66
2022/11/05 11:08:01;;;;;;;1.80;1.70;;;13.10;99.90;;;;;;5089009;28;20564;-66
2022/11/05 11:10:30;;;;;;;1.90;1.70;;;13.20;99.90;;;;;;5109077;28;20195;-65
2022/11/05 11:12:58;;;;;;;2.73;1.43;;;13.20;99.90;;;;;;5109412;28;20196;-65
2022/11/05 11:15:31;;;;;;;2.30;1.77;;;13.20;99.90;;;;;;5113502;27;20197;-66
2022/11/05 11:18:16;;;;;;;1.70;1.60;;;13.20;99.90;;;;;;5115011;27;20259;-64
2022/11/05 11:20:45;;;;;;;1.40;1.30;;;13.30;99.90;;;;;;5113261;27;20211;-66
2022/11/05 11:23:14;;;;;;;1.40;1.30;;;13.30;99.90;;;;;;5113819;27;20203;-66
2022/11/05 11:25:47;;;;;;;1.47;1.37;;;13.30;99.90;;;;;;5112342;27;20197;-65
2022/11/05 11:28:25;;;;;;;1.10;1.00;;;13.30;99.90;;;;;;5114877;27;20208;-66
2022/11/05 11:31:05;;;;;;;1.70;1.30;;;13.30;99.90;;;;;;5092373;27;20541;-66
2022/11/05 11:33:33;;;;;;;1.40;1.07;;;13.30;99.90;;;;;;5113455;27;20318;-66
2022/11/05 11:36:01;;;;;;;1.53;1.10;;;13.30;99.90;;;;;;5111866;27;20193;-66
2022/11/05 11:38:31;;;;;;;2.87;1.43;;;13.30;99.90;;;;;;5112659;27;20191;-66
2022/11/05 11:41:22;;;;;;;1.50;1.37;;;13.40;99.90;;;;;;5114271;27;20394;-66
2022/11/05 11:43:53;;;;;;;3.03;1.30;;;13.40;99.90;;;;;;5113538;27;20212;-65
2022/11/05 11:46:21;;;;;;;1.93;1.60;;;13.40;99.90;;;;;;5114115;27;20670;-66
2022/11/05 11:48:49;;;;;;;1.50;1.40;;;13.40;99.90;;;;;;5114529;27;20199;-67
2022/11/05 11:51:30;;;;;;;1.80;1.60;;;13.40;99.90;;;;;;5114082;27;20196;-66
2022/11/05 11:53:58;;;;;;;3.27;1.40;;;13.40;99.90;;;;;;5110742;27;20190;-65
2022/11/05 11:56:25;;;;;;;1.20;1.10;;;13.40;99.90;;;;;;5112222;28;20560;-66
2022/11/05 11:58:54;;;;;;;1.93;1.20;;;13.40;99.90;;;;;;5109788;28;20251;-65
2022/11/05 12:01:43;;;;;;;1.03;1.03;;;13.50;99.90;;;;;;5110165;28;20193;-67
2022/11/05 12:04:40;;;;;;;1.60;1.10;;;13.50;99.90;;;;;;5113435;27;20372;-66
2022/11/05 12:07:24;;;;;;;1.33;1.10;;;13.50;99.90;;;;;;5108043;28;20205;-65
2022/11/05 12:10:30;;;;;;;2.03;1.20;;;13.50;99.90;;;;;;5111784;28;20194;-65
2022/11/05 12:13:15;;;;;;;1.40;1.30;;;13.50;99.90;;;;;;5097546;27;20208;-65
2022/11/05 12:15:51;;;;;;;1.20;1.10;;;13.50;99.90;;;;;;5111199;27;21222;-66
2022/11/05 12:18:30;;;;;;;1.00;1.00;;;13.50;99.90;;;;;;5111773;28;20225;-67
2022/11/05 12:21:18;;;;;;;1.30;1.20;;;13.50;99.90;;;;;;5091168;28;20211;-66
2022/11/05 12:24:07;;;;;;;1.40;1.30;;;13.50;99.90;;;;;;5110541;27;20207;-65
2022/11/05 12:26:45;;;;;;;1.07;1.00;;;13.50;99.90;;;;;;5111162;27;20197;-65
2022/11/05 12:29:40;;;;;;;1.40;1.30;;;13.50;99.90;;;;;;5113400;27;20189;-65
2022/11/05 12:32:37;;;;;;;1.57;1.20;;;13.50;99.90;;;;;;5113006;27;20564;-66
2022/11/05 12:35:17;;;;;;;1.50;1.03;;;13.60;99.90;;;;;;5112660;27;20190;-67
2022/11/05 12:37:53;;;;;;;1.43;1.20;;;13.60;99.90;;;;;;5111675;27;20194;-65
2022/11/05 12:40:40;;;;;;;1.00;1.00;;;13.60;99.90;;;;;;5091925;28;20211;-65
2022/11/05 12:43:16;;;;;;;1.10;1.10;;;13.60;99.90;;;;;;5093563;28;20233;-65
2022/11/05 12:45:51;;;;;;;2.97;1.50;;;13.60;99.90;;;;;;5112580;27;20196;-65
2022/11/05 12:48:45;;;;;;;1.80;1.60;;;13.60;99.90;;;;;;5110427;28;20198;-64
2022/11/05 12:51:27;;;;;;;1.57;1.47;;;13.60;99.90;;;;;;5112587;27;20189;-66
2022/11/05 12:54:09;;;;;;;1.50;1.40;;;13.60;99.90;;;;;;5107729;27;20197;-65
2022/11/05 12:56:40;;;;;;;1.20;1.10;;;13.60;99.90;;;;;;5097506;28;20213;-65
2022/11/05 12:59:18;;;;;;;1.47;1.33;;;13.60;99.90;;;;;;5108673;28;20237;-65
2022/11/05 13:01:50;;;;;;;1.30;1.20;;;13.60;99.90;;;;;;5109596;28;20278;-66
2022/11/05 13:04:26;;;;;;;2.67;1.80;;;13.70;99.90;;;;;;5110149;28;20284;-67
2022/11/05 13:06:57;;;;;;;1.60;1.50;;;13.70;99.90;;;;;;5113378;27;20190;-66
2022/11/05 13:09:27;;;;;;;2.63;1.80;;;13.70;99.90;;;;;;5111189;27;20198;-67
2022/11/05 13:11:58;;;;;;;1.50;1.40;;;13.70;99.90;;;;;;5112369;27;20280;-66
2022/11/05 13:14:30;;;;;;;1.27;1.10;;;13.70;99.90;;;;;;5111160;27;20201;-66
2022/11/05 13:17:03;;;;;;;1.20;1.10;;;13.70;99.90;;;;;;5113362;27;20269;-66
2022/11/05 13:19:34;;;;;;;1.37;1.17;;;13.70;99.90;;;;;;5112005;27;20201;-65
2022/11/05 13:22:12;;;;;;;2.10;1.27;;;13.80;99.90;;;;;;5112628;27;20518;-66
2022/11/05 13:24:44;;;;;;;1.30;1.10;;;13.80;99.90;;;;;;5113407;27;20243;-66
2022/11/05 13:27:29;;;;;;;1.20;1.10;;;13.80;99.90;;;;;;5110337;27;20213;-66
2022/11/05 13:30:02;;;;;;;2.00;1.30;;;13.80;99.90;;;;;;5110519;27;20390;-66
2022/11/05 13:32:33;;;;;;;1.83;1.37;;;13.80;99.90;;;;;;5110177;27;20257;-66
2022/11/05 13:35:03;;;;;;;1.63;1.50;;;13.80;99.90;;;;;;5110707;27;20869;-65
2022/11/05 13:40:29;;;;;;;1.90;1.70;;;13.80;99.90;;;;;;5109642;27;20197;-67
2022/11/05 13:43:11;;;;;;;2.23;1.57;;;13.80;99.90;;;;;;5108831;27;20193;-65
2022/11/05 13:45:54;;;;;;;2.73;1.77;;;13.80;99.90;;;;;;5110839;27;20657;-66
2022/11/05 13:48:59;;;;;;;3.30;2.30;;;13.80;99.90;;;;;;5110479;27;20206;-65